Time;durP1;ratioP1;P1;durP2;ratioP2;P2;SDS_P1;SDS_P2;PMS_P1;PMS_P2;Temp;Humidity;BMP_temperature;BMP_pressure;BME280_temperature;BME280_humidity;BME280_pressure;Samples;Min_cycle;Max_cycle;Signal;HPM_P1;HPM_P2
2023/02/06 00:01:22;;;;;;;9.77;6.63;;;4.80;99.90;;;;;;5101670;28;20104;-79
2023/02/06 00:03:48;;;;;;;10.77;6.80;;;4.80;99.90;;;;;;5101133;28;20049;-79
2023/02/06 00:06:14;;;;;;;10.07;6.70;;;4.90;99.90;;;;;;5117801;28;20094;-79
2023/02/06 00:08:40;;;;;;;11.37;6.90;;;4.80;99.90;;;;;;5098571;28;20461;-80
2023/02/06 00:11:07;;;;;;;10.40;6.60;;;4.80;99.90;;;;;;5116846;28;20028;-79
2023/02/06 00:13:34;;;;;;;11.17;6.90;;;4.90;99.90;;;;;;5099050;28;20039;-79
2023/02/06 00:16:00;;;;;;;10.83;6.57;;;4.80;99.90;;;;;;5098449;28;20024;-80
2023/02/06 00:18:26;;;;;;;12.20;7.10;;;4.80;99.90;;;;;;5098366;28;20020;-80
2023/02/06 00:20:52;;;;;;;13.80;7.40;;;4.80;99.90;;;;;;5116013;28;20156;-81
2023/02/06 00:23:17;;;;;;;12.80;7.50;;;4.80;99.90;;;;;;5098760;28;20480;-80
2023/02/06 00:25:43;;;;;;;11.87;7.17;;;4.70;99.90;;;;;;5098129;28;20053;-81
2023/02/06 00:28:08;;;;;;;10.60;7.23;;;4.70;99.90;;;;;;5098906;28;20024;-81
2023/02/06 00:30:34;;;;;;;13.27;7.77;;;4.70;99.90;;;;;;5098943;28;20031;-80
2023/02/06 00:33:00;;;;;;;11.53;7.20;;;4.70;99.90;;;;;;5097929;28;20115;-81
2023/02/06 00:35:25;;;;;;;13.10;8.23;;;4.70;99.90;;;;;;5116714;28;20027;-80
2023/02/06 00:37:51;;;;;;;11.43;7.40;;;4.70;99.90;;;;;;5098199;28;20160;-81
2023/02/06 00:40:17;;;;;;;13.03;7.73;;;4.70;99.90;;;;;;5102145;28;20046;-80
2023/02/06 00:42:43;;;;;;;11.97;7.60;;;4.60;99.90;;;;;;5102801;28;20073;-81
2023/02/06 00:45:09;;;;;;;13.90;8.10;;;4.60;99.90;;;;;;5101492;28;20027;-79
2023/02/06 00:47:35;;;;;;;13.67;7.83;;;4.60;99.90;;;;;;5100009;28;20027;-79
2023/02/06 00:50:01;;;;;;;14.20;8.00;;;4.50;99.90;;;;;;5099229;28;20060;-79
2023/02/06 00:52:27;;;;;;;11.83;7.63;;;4.50;99.90;;;;;;5100671;28;20114;-79
2023/02/06 00:54:52;;;;;;;12.73;7.63;;;4.40;99.90;;;;;;5097988;28;20055;-79
2023/02/06 00:57:18;;;;;;;13.83;8.00;;;4.30;99.90;;;;;;5097296;28;20024;-79
2023/02/06 00:59:43;;;;;;;12.13;7.77;;;4.30;99.90;;;;;;5114590;28;20410;-80
2023/02/06 01:02:09;;;;;;;12.97;7.40;;;4.30;99.90;;;;;;5097211;28;20065;-79
2023/02/06 01:04:35;;;;;;;13.33;8.13;;;4.20;99.90;;;;;;5097634;28;20059;-79
2023/02/06 01:07:00;;;;;;;14.67;8.57;;;4.20;99.90;;;;;;5096615;28;20020;-78
2023/02/06 01:09:26;;;;;;;13.93;8.30;;;4.20;99.90;;;;;;5097407;28;20032;-79
2023/02/06 01:11:51;;;;;;;13.87;8.07;;;4.10;99.90;;;;;;5096804;28;20024;-79
2023/02/06 01:14:17;;;;;;;14.47;8.33;;;4.10;99.90;;;;;;5097266;28;20024;-79
2023/02/06 01:16:43;;;;;;;14.70;7.83;;;4.10;99.90;;;;;;5097232;28;20533;-82
2023/02/06 01:19:08;;;;;;;13.17;7.73;;;4.10;99.90;;;;;;5116150;28;20040;-79
2023/02/06 01:21:35;;;;;;;13.20;7.77;;;4.00;99.90;;;;;;5097348;28;20043;-79
2023/02/06 01:24:00;;;;;;;14.53;8.33;;;4.00;99.90;;;;;;5096521;28;20035;-79
2023/02/06 01:26:26;;;;;;;16.20;8.73;;;3.90;99.90;;;;;;5097517;28;20034;-79
2023/02/06 01:28:52;;;;;;;14.27;8.33;;;3.90;99.90;;;;;;5114880;28;20385;-79
2023/02/06 01:31:19;;;;;;;13.60;8.60;;;4.00;99.90;;;;;;5097549;28;20027;-79
2023/02/06 01:33:47;;;;;;;14.90;8.13;;;4.00;99.90;;;;;;5097018;28;20059;-80
2023/02/06 01:36:14;;;;;;;13.33;7.73;;;4.00;99.90;;;;;;5097922;28;20415;-79
2023/02/06 01:38:40;;;;;;;13.63;8.13;;;4.10;99.90;;;;;;5115572;28;20029;-79
2023/02/06 01:41:07;;;;;;;17.67;9.17;;;4.10;99.90;;;;;;5096642;28;20122;-79
2023/02/06 01:43:36;;;;;;;15.57;8.90;;;4.10;99.90;;;;;;5114851;28;20040;-79
2023/02/06 01:46:02;;;;;;;15.90;9.37;;;4.00;99.90;;;;;;5114139;28;20027;-79
2023/02/06 01:48:42;;;;;;;15.60;8.90;;;4.10;99.90;;;;;;5097128;28;20038;-79
2023/02/06 01:51:12;;;;;;;18.77;9.30;;;4.10;99.90;;;;;;5097178;28;20093;-79
2023/02/06 01:53:39;;;;;;;16.03;8.43;;;4.10;99.90;;;;;;5107882;28;20032;-79
2023/02/06 01:56:06;;;;;;;15.67;8.60;;;4.20;99.90;;;;;;5101403;28;20081;-79
2023/02/06 01:58:39;;;;;;;16.17;8.83;;;4.20;99.90;;;;;;5093131;28;20035;-79
2023/02/06 02:01:06;;;;;;;13.53;8.03;;;4.20;99.90;;;;;;5093721;28;20088;-80
2023/02/06 02:03:36;;;;;;;15.47;8.83;;;4.20;99.90;;;;;;5076141;28;20055;-80
2023/02/06 02:06:10;;;;;;;12.57;7.30;;;4.20;99.90;;;;;;5076018;28;20031;-80
2023/02/06 02:08:40;;;;;;;13.43;7.50;;;4.20;99.90;;;;;;5076404;28;20107;-80
2023/02/06 02:11:08;;;;;;;13.93;8.10;;;4.30;99.90;;;;;;5075644;28;20190;-80
2023/02/06 02:13:37;;;;;;;13.37;7.60;;;4.30;99.90;;;;;;5075975;28;20093;-80
2023/02/06 02:16:13;;;;;;;13.77;8.23;;;4.30;99.90;;;;;;5075607;28;20020;-81
2023/02/06 02:19:02;;;;;;;14.77;8.30;;;4.30;99.90;;;;;;5075581;28;20032;-80
2023/02/06 02:21:38;;;;;;;14.53;8.10;;;4.40;99.90;;;;;;5075486;28;20134;-79
2023/02/06 02:24:19;;;;;;;15.27;8.60;;;4.30;99.90;;;;;;5075046;28;20039;-80
2023/02/06 02:26:57;;;;;;;15.88;8.93;;;4.30;99.90;;;;;;5075887;28;20028;-81
2023/02/06 02:29:56;;;;;;;18.60;8.77;;;4.20;99.90;;;;;;5075655;28;20126;-80
2023/02/06 02:33:03;;;;;;;18.53;9.30;;;4.20;99.90;;;;;;5075510;28;20030;-80
2023/02/06 02:35:49;;;;;;;18.00;9.63;;;4.20;99.90;;;;;;4975591;28;20031;-80
2023/02/06 02:38:19;;;;;;;16.73;9.20;;;4.20;99.90;;;;;;4975901;28;20035;-79
2023/02/06 02:41:14;;;;;;;16.00;9.33;;;4.20;99.90;;;;;;4992016;28;20129;-81
2023/02/06 02:43:50;;;;;;;16.80;9.47;;;4.20;99.90;;;;;;4992290;28;20030;-80
2023/02/06 02:46:37;;;;;;;16.57;9.17;;;4.30;99.90;;;;;;4991913;28;20034;-80
2023/02/06 02:49:07;;;;;;;17.33;9.47;;;4.30;99.90;;;;;;4991766;28;20038;-80
2023/02/06 02:51:35;;;;;;;20.70;9.60;;;4.30;99.90;;;;;;4992248;28;20022;-80
2023/02/06 02:54:01;;;;;;;18.30;9.47;;;4.30;99.90;;;;;;4991715;28;20038;-80
2023/02/06 02:56:27;;;;;;;17.80;9.10;;;4.30;99.90;;;;;;4992558;28;20031;-80
2023/02/06 02:58:59;;;;;;;19.47;9.87;;;4.30;99.90;;;;;;4991769;28;20077;-78
2023/02/06 03:01:33;;;;;;;17.08;9.30;;;4.30;99.90;;;;;;4992148;28;20053;-79
2023/02/06 03:04:05;;;;;;;18.10;9.07;;;4.30;99.90;;;;;;4975243;28;20134;-79
2023/02/06 03:06:30;;;;;;;19.35;9.63;;;4.30;99.90;;;;;;5037707;28;20458;-79
2023/02/06 03:09:14;;;;;;;17.67;9.77;;;4.30;99.90;;;;;;5076627;28;20055;-80
2023/02/06 03:11:48;;;;;;;20.57;10.23;;;4.30;99.90;;;;;;5097160;28;20024;-79
2023/02/06 03:14:39;;;;;;;21.57;10.20;;;4.30;99.90;;;;;;5079136;28;20378;-79
2023/02/06 03:17:09;;;;;;;23.20;10.80;;;4.30;99.90;;;;;;5096620;28;20481;-80
2023/02/06 03:19:43;;;;;;;23.07;10.87;;;4.30;99.90;;;;;;5079042;28;20470;-78
2023/02/06 03:22:09;;;;;;;20.40;10.60;;;4.30;99.90;;;;;;5096655;28;20278;-79
2023/02/06 03:24:38;;;;;;;23.23;10.63;;;4.30;99.90;;;;;;5079210;28;20056;-79
2023/02/06 03:27:09;;;;;;;19.77;10.73;;;4.20;99.90;;;;;;5078529;28;20377;-79
2023/02/06 03:29:37;;;;;;;21.60;10.97;;;4.20;99.90;;;;;;5097150;28;20381;-79
2023/02/06 03:32:30;;;;;;;21.87;10.50;;;4.20;99.90;;;;;;5078722;28;20474;-80
2023/02/06 03:35:05;;;;;;;21.20;10.73;;;4.20;99.90;;;;;;5084747;28;20492;-80
2023/02/06 03:37:31;;;;;;;19.50;10.50;;;4.20;99.90;;;;;;5078446;28;20031;-80
2023/02/06 03:39:59;;;;;;;20.03;10.63;;;4.10;99.90;;;;;;5095576;28;20028;-80
2023/02/06 03:42:27;;;;;;;20.00;10.83;;;4.10;99.90;;;;;;5078628;28;20027;-80
2023/02/06 03:45:14;;;;;;;21.47;11.03;;;4.10;99.90;;;;;;5095794;28;20031;-80
2023/02/06 03:47:42;;;;;;;21.37;10.57;;;4.00;99.90;;;;;;5079395;28;20036;-80
2023/02/06 03:50:10;;;;;;;22.17;11.40;;;4.00;99.90;;;;;;5078476;28;20044;-79
2023/02/06 03:52:40;;;;;;;20.47;10.63;;;4.10;99.90;;;;;;5096748;28;20024;-80
2023/02/06 03:55:21;;;;;;;20.27;10.47;;;4.10;99.90;;;;;;5078318;28;20053;-79
2023/02/06 03:58:09;;;;;;;19.63;10.20;;;4.20;99.90;;;;;;5096769;28;20504;-80
2023/02/06 04:00:38;;;;;;;23.03;11.90;;;4.20;99.90;;;;;;5078258;28;20060;-80
2023/02/06 04:03:04;;;;;;;22.03;11.20;;;4.20;99.90;;;;;;5078003;28;20085;-80
2023/02/06 04:05:30;;;;;;;17.60;10.70;;;4.10;99.90;;;;;;5078273;28;20020;-80
2023/02/06 04:07:55;;;;;;;21.50;10.70;;;4.20;99.90;;;;;;5077862;28;20028;-81
2023/02/06 04:10:21;;;;;;;24.20;11.97;;;4.10;99.90;;;;;;5078292;28;20362;-80
2023/02/06 04:12:47;;;;;;;19.67;11.27;;;4.10;99.90;;;;;;5096516;28;20077;-80
2023/02/06 04:15:13;;;;;;;20.87;10.97;;;4.10;99.90;;;;;;5078056;28;20020;-79
2023/02/06 04:17:39;;;;;;;20.43;11.27;;;4.20;99.90;;;;;;5078373;28;20039;-80
2023/02/06 04:20:05;;;;;;;20.33;10.90;;;4.10;99.90;;;;;;5095271;28;20177;-80
2023/02/06 04:22:31;;;;;;;23.27;12.07;;;4.20;99.90;;;;;;5077870;28;20020;-80
2023/02/06 04:24:57;;;;;;;26.00;12.40;;;4.20;99.90;;;;;;5095176;28;20024;-80
2023/02/06 04:27:23;;;;;;;22.47;12.03;;;4.20;99.90;;;;;;5095733;28;20077;-80
2023/02/06 04:29:49;;;;;;;23.17;11.50;;;4.10;99.90;;;;;;5077820;28;20028;-80
2023/02/06 04:32:14;;;;;;;23.67;11.60;;;4.00;99.90;;;;;;5077031;28;20027;-80
2023/02/06 04:34:40;;;;;;;22.13;11.47;;;4.10;99.90;;;;;;5077818;28;20110;-78
2023/02/06 04:37:06;;;;;;;22.20;11.70;;;4.10;99.90;;;;;;5077303;28;20035;-80
2023/02/06 04:39:32;;;;;;;22.20;11.17;;;4.10;99.90;;;;;;5077823;28;20423;-79
2023/02/06 04:41:58;;;;;;;23.17;11.93;;;4.10;99.90;;;;;;5094655;28;20039;-78
2023/02/06 04:44:24;;;;;;;23.20;11.80;;;4.10;99.90;;;;;;5077670;28;20016;-79
2023/02/06 04:46:50;;;;;;;22.67;12.10;;;4.10;99.90;;;;;;5077419;28;20398;-79
2023/02/06 04:49:16;;;;;;;25.30;12.27;;;4.20;99.90;;;;;;5076628;28;20032;-79
2023/02/06 04:51:42;;;;;;;22.17;11.50;;;4.10;99.90;;;;;;5094958;28;20073;-78
2023/02/06 04:54:11;;;;;;;26.53;12.63;;;4.10;99.90;;;;;;5076369;28;20115;-78
2023/02/06 04:56:37;;;;;;;21.50;11.87;;;4.10;99.90;;;;;;5077069;28;20035;-78
2023/02/06 04:59:02;;;;;;;23.23;11.73;;;4.10;99.90;;;;;;5076416;28;20024;-81
2023/02/06 05:01:28;;;;;;;22.57;10.90;;;4.10;99.90;;;;;;5077527;28;20074;-80
2023/02/06 05:03:53;;;;;;;25.73;11.93;;;4.10;99.90;;;;;;5095194;28;20489;-81
2023/02/06 05:06:19;;;;;;;23.23;11.27;;;4.10;99.90;;;;;;5076799;28;20028;-80
2023/02/06 05:08:44;;;;;;;22.70;11.40;;;4.10;99.90;;;;;;5077245;28;20027;-81
2023/02/06 05:11:10;;;;;;;22.53;11.23;;;4.10;99.90;;;;;;5076581;28;20138;-80
2023/02/06 05:13:36;;;;;;;23.93;11.63;;;4.10;99.90;;;;;;5094864;28;20028;-80
2023/02/06 05:16:13;;;;;;;23.60;11.17;;;4.00;99.90;;;;;;5094029;28;20024;-81
2023/02/06 05:18:39;;;;;;;18.83;10.20;;;4.00;99.90;;;;;;5076439;28;20034;-80
2023/02/06 05:21:05;;;;;;;21.80;11.23;;;4.00;99.90;;;;;;5072188;28;20044;-78
2023/02/06 05:23:31;;;;;;;21.83;11.33;;;4.00;99.90;;;;;;5073642;28;20074;-79
2023/02/06 05:25:57;;;;;;;19.90;11.13;;;4.00;99.90;;;;;;5072801;28;20123;-80
2023/02/06 05:28:23;;;;;;;21.10;10.27;;;4.00;99.90;;;;;;5073889;28;20031;-78
2023/02/06 05:30:48;;;;;;;21.43;11.07;;;4.00;99.90;;;;;;5072732;28;20036;-79
2023/02/06 05:33:14;;;;;;;20.50;10.00;;;3.90;99.90;;;;;;5073435;28;20032;-79
2023/02/06 05:35:40;;;;;;;24.67;12.33;;;3.90;99.90;;;;;;5073221;28;20028;-79
2023/02/06 05:38:05;;;;;;;20.23;10.70;;;3.90;99.90;;;;;;5072227;28;20028;-80
2023/02/06 05:40:31;;;;;;;21.60;11.27;;;3.90;99.90;;;;;;5072974;28;20024;-79
2023/02/06 05:42:57;;;;;;;20.87;10.40;;;3.90;99.90;;;;;;5073005;28;20040;-81
2023/02/06 05:45:24;;;;;;;19.40;10.47;;;3.90;99.90;;;;;;5072650;28;20031;-79
2023/02/06 05:47:50;;;;;;;19.70;10.30;;;3.80;99.90;;;;;;5074128;28;20033;-79
2023/02/06 05:50:16;;;;;;;21.30;10.20;;;3.80;99.90;;;;;;5073468;28;20044;-79
2023/02/06 05:52:41;;;;;;;22.27;10.97;;;3.80;99.90;;;;;;5073708;28;20086;-79
2023/02/06 05:55:08;;;;;;;19.43;10.47;;;3.80;99.90;;;;;;5072494;28;20029;-80
2023/02/06 05:57:34;;;;;;;21.57;10.30;;;3.70;99.90;;;;;;5073232;28;20050;-80
2023/02/06 06:00:00;;;;;;;20.83;10.83;;;3.70;99.90;;;;;;5072603;28;20032;-82
2023/02/06 06:02:25;;;;;;;22.50;10.67;;;3.80;99.90;;;;;;5074095;28;20025;-80
2023/02/06 06:04:51;;;;;;;20.37;9.57;;;3.70;99.90;;;;;;5072766;28;20082;-80
2023/02/06 06:07:16;;;;;;;22.33;11.60;;;3.70;99.90;;;;;;5072105;28;20024;-80
2023/02/06 06:09:42;;;;;;;25.20;11.37;;;3.70;99.90;;;;;;5073655;28;20466;-80
2023/02/06 06:12:08;;;;;;;24.03;11.70;;;3.60;99.90;;;;;;5072835;28;20036;-81
2023/02/06 06:14:33;;;;;;;22.13;11.47;;;3.60;99.90;;;;;;5073091;28;20374;-80
2023/02/06 06:16:59;;;;;;;24.33;11.70;;;3.70;99.90;;;;;;5072779;28;20496;-81
2023/02/06 06:19:25;;;;;;;21.57;10.53;;;3.70;99.90;;;;;;5073870;28;20482;-79
2023/02/06 06:21:50;;;;;;;20.77;10.83;;;3.80;99.90;;;;;;5089661;28;20056;-79
2023/02/06 06:24:16;;;;;;;25.60;11.57;;;3.70;99.90;;;;;;5075504;28;20020;-80
2023/02/06 06:26:42;;;;;;;24.00;10.80;;;3.80;99.90;;;;;;5093898;28;20531;-79
2023/02/06 06:29:07;;;;;;;21.67;10.80;;;3.80;99.90;;;;;;5093296;28;20051;-80
2023/02/06 06:31:33;;;;;;;21.67;10.50;;;3.80;99.90;;;;;;5093823;28;20046;-79
2023/02/06 06:33:58;;;;;;;19.43;10.33;;;3.80;99.90;;;;;;5075931;28;20457;-81
2023/02/06 06:36:24;;;;;;;22.53;10.57;;;3.90;99.90;;;;;;5093717;28;20028;-79
2023/02/06 06:38:49;;;;;;;22.37;10.93;;;3.90;99.90;;;;;;5093719;28;20023;-79
2023/02/06 06:41:15;;;;;;;21.53;10.73;;;3.80;99.90;;;;;;5075791;28;20351;-79
2023/02/06 06:43:41;;;;;;;22.87;10.47;;;3.80;99.90;;;;;;5077115;28;20020;-80
2023/02/06 06:46:07;;;;;;;18.17;10.40;;;3.80;99.90;;;;;;5078792;28;20028;-79
2023/02/06 06:48:35;;;;;;;22.13;10.27;;;3.80;99.90;;;;;;5097364;28;20029;-79
2023/02/06 06:51:01;;;;;;;22.03;10.23;;;3.80;99.90;;;;;;5096866;28;20028;-82
2023/02/06 06:53:27;;;;;;;21.90;10.60;;;3.80;99.90;;;;;;5079170;28;20035;-80
2023/02/06 06:55:52;;;;;;;17.53;10.03;;;3.80;99.90;;;;;;5079417;28;20028;-80
2023/02/06 06:58:18;;;;;;;19.47;9.77;;;3.80;99.90;;;;;;5079083;28;20032;-80
2023/02/06 07:00:43;;;;;;;22.00;10.67;;;3.70;99.90;;;;;;5079728;28;20024;-80
2023/02/06 07:03:10;;;;;;;20.33;10.17;;;3.80;99.90;;;;;;5096899;28;20377;-80
2023/02/06 07:05:36;;;;;;;23.07;11.00;;;3.80;99.90;;;;;;5097406;28;20046;-80
2023/02/06 07:08:01;;;;;;;24.30;11.70;;;3.90;99.90;;;;;;5079500;28;20415;-82
2023/02/06 07:10:27;;;;;;;20.97;11.60;;;3.80;99.90;;;;;;5079201;28;20039;-80
2023/02/06 07:12:53;;;;;;;19.87;11.33;;;3.80;99.90;;;;;;5079352;28;20384;-80
2023/02/06 07:15:19;;;;;;;19.97;10.47;;;3.80;99.90;;;;;;5096761;28;20024;-80
2023/02/06 07:17:45;;;;;;;18.93;10.00;;;3.80;99.90;;;;;;5096929;28;20024;-80
2023/02/06 07:20:11;;;;;;;22.47;10.13;;;3.80;99.90;;;;;;5078350;28;20043;-79
2023/02/06 07:22:37;;;;;;;22.20;10.90;;;3.80;99.90;;;;;;5079238;28;20027;-78
2023/02/06 07:25:03;;;;;;;21.93;10.73;;;3.80;99.90;;;;;;5078618;28;20031;-80
2023/02/06 07:27:28;;;;;;;21.27;10.90;;;3.90;99.90;;;;;;5078659;28;20029;-79
2023/02/06 07:29:54;;;;;;;21.37;10.77;;;3.80;99.90;;;;;;5097113;28;20036;-79
2023/02/06 07:32:19;;;;;;;22.40;10.60;;;3.80;99.90;;;;;;5096809;28;20024;-79
2023/02/06 07:34:45;;;;;;;22.20;10.20;;;3.80;99.90;;;;;;5079046;28;20024;-79
2023/02/06 07:37:10;;;;;;;23.17;10.97;;;3.80;99.90;;;;;;5078063;28;20024;-80
2023/02/06 07:39:36;;;;;;;19.30;10.17;;;3.90;99.90;;;;;;5096543;28;20024;-79
2023/02/06 07:42:02;;;;;;;19.37;9.97;;;3.90;99.90;;;;;;5078563;28;20453;-79
2023/02/06 07:44:27;;;;;;;25.10;10.50;;;4.00;99.90;;;;;;5078158;28;20059;-79
2023/02/06 07:46:53;;;;;;;22.90;9.97;;;3.90;99.90;;;;;;5078667;28;20039;-79
2023/02/06 07:49:19;;;;;;;19.17;9.87;;;4.00;99.90;;;;;;5077756;28;20104;-79
2023/02/06 07:51:45;;;;;;;19.37;9.97;;;4.00;99.90;;;;;;5096410;28;20024;-79
2023/02/06 07:54:11;;;;;;;20.30;10.50;;;4.00;99.90;;;;;;5077494;28;20461;-78
2023/02/06 07:56:38;;;;;;;19.90;10.00;;;4.10;99.90;;;;;;5078367;28;20471;-79
2023/02/06 07:59:04;;;;;;;21.03;10.30;;;4.10;99.90;;;;;;5077960;28;20024;-82
2023/02/06 08:01:30;;;;;;;18.93;9.23;;;4.10;99.90;;;;;;5077201;28;20100;-81
2023/02/06 08:03:56;;;;;;;19.87;10.30;;;4.10;99.90;;;;;;5078073;28;20032;-79
2023/02/06 08:06:23;;;;;;;20.37;10.00;;;4.10;99.90;;;;;;5095612;28;20036;-79
2023/02/06 08:08:49;;;;;;;20.07;10.03;;;4.10;99.90;;;;;;5077906;28;20055;-80
2023/02/06 08:11:19;;;;;;;19.57;9.80;;;4.10;99.90;;;;;;5095017;28;20385;-80
2023/02/06 08:13:46;;;;;;;20.27;10.20;;;4.10;99.90;;;;;;5077829;28;20074;-80
2023/02/06 08:16:14;;;;;;;19.43;10.20;;;4.10;99.90;;;;;;5077408;28;20078;-82
2023/02/06 08:18:40;;;;;;;22.43;10.30;;;4.10;99.90;;;;;;5077820;28;20119;-80
2023/02/06 08:21:10;;;;;;;22.17;10.03;;;4.20;99.90;;;;;;5087308;28;20090;-82
2023/02/06 08:23:35;;;;;;;21.97;9.80;;;4.30;99.90;;;;;;5116268;28;20145;-80
2023/02/06 08:26:02;;;;;;;18.10;9.57;;;4.30;99.90;;;;;;5094222;28;20106;-79
2023/02/06 08:28:28;;;;;;;18.63;9.13;;;4.30;99.90;;;;;;5108505;28;20093;-81
2023/02/06 08:30:54;;;;;;;18.77;9.90;;;4.30;99.90;;;;;;5107831;28;20023;-80
2023/02/06 08:33:19;;;;;;;17.83;9.43;;;4.40;99.90;;;;;;5086949;28;20024;-81
2023/02/06 08:35:45;;;;;;;24.07;10.43;;;4.50;99.90;;;;;;5106695;28;20357;-80
2023/02/06 08:38:10;;;;;;;20.03;10.60;;;4.50;99.90;;;;;;5088110;28;20051;-79
2023/02/06 08:40:36;;;;;;;18.67;9.60;;;4.40;99.90;;;;;;5088225;28;20042;-79
2023/02/06 08:43:01;;;;;;;19.33;10.07;;;4.40;99.90;;;;;;5104489;28;20136;-80
2023/02/06 08:45:27;;;;;;;21.97;10.03;;;4.40;99.90;;;;;;5086262;28;20131;-80
2023/02/06 08:47:52;;;;;;;18.73;10.20;;;4.30;99.90;;;;;;5091239;28;20023;-80
2023/02/06 08:50:18;;;;;;;21.83;10.27;;;4.40;99.90;;;;;;5077018;28;20040;-82
2023/02/06 08:52:44;;;;;;;18.23;10.30;;;4.40;99.90;;;;;;5101461;28;20445;-80
2023/02/06 08:55:09;;;;;;;24.37;10.50;;;4.40;99.90;;;;;;5085064;28;20055;-80
2023/02/06 08:57:35;;;;;;;21.33;11.53;;;4.50;99.90;;;;;;5086532;28;20472;-80
2023/02/06 09:00:00;;;;;;;20.63;10.13;;;4.50;99.90;;;;;;5089524;28;20024;-80
2023/02/06 09:02:26;;;;;;;19.47;9.87;;;4.50;99.90;;;;;;5105258;28;20027;-79
2023/02/06 09:04:52;;;;;;;18.97;9.63;;;4.60;99.90;;;;;;5103361;28;20031;-79
2023/02/06 09:07:17;;;;;;;19.70;9.80;;;4.60;99.90;;;;;;5083885;28;20230;-81
2023/02/06 09:09:43;;;;;;;21.60;9.93;;;4.70;99.90;;;;;;5086759;28;20028;-79
2023/02/06 09:12:10;;;;;;;19.30;10.37;;;4.70;99.90;;;;;;5087465;28;20023;-84
2023/02/06 09:14:36;;;;;;;21.10;10.60;;;4.80;99.90;;;;;;5101556;28;20052;-76
2023/02/06 09:17:02;;;;;;;19.37;10.13;;;4.80;99.90;;;;;;5104145;28;20467;-78
2023/02/06 09:19:27;;;;;;;19.07;9.70;;;4.80;99.90;;;;;;5084036;28;20318;-77
2023/02/06 09:21:53;;;;;;;17.63;9.87;;;4.80;99.90;;;;;;5080689;28;20052;-83
2023/02/06 09:24:19;;;;;;;21.07;10.63;;;4.70;99.90;;;;;;5085173;28;20036;-81
2023/02/06 09:26:45;;;;;;;22.60;11.20;;;4.70;99.90;;;;;;5081972;28;20090;-80
2023/02/06 09:29:11;;;;;;;18.70;8.97;;;4.80;99.90;;;;;;5086215;28;20060;-79
2023/02/06 09:31:40;;;;;;;20.27;8.97;;;4.90;99.90;;;;;;5081980;28;20073;-83
2023/02/06 09:34:06;;;;;;;16.23;8.77;;;4.90;99.90;;;;;;5080926;28;20128;-79
2023/02/06 09:36:33;;;;;;;20.10;9.23;;;4.90;99.90;;;;;;5085148;28;20386;-76
2023/02/06 09:39:01;;;;;;;21.00;9.67;;;5.00;99.90;;;;;;5083021;28;20055;-79
2023/02/06 09:41:30;;;;;;;16.93;9.23;;;5.10;99.90;;;;;;5084295;28;20036;-75
2023/02/06 09:44:28;;;;;;;16.43;9.00;;;5.10;99.90;;;;;;5080968;28;20016;-78
2023/02/06 09:47:17;;;;;;;21.00;8.33;;;5.10;99.90;;;;;;5079891;28;20024;-78
2023/02/06 09:49:47;;;;;;;16.67;9.47;;;5.10;99.90;;;;;;5079131;28;20047;-77
2023/02/06 09:52:19;;;;;;;18.17;8.30;;;5.10;99.90;;;;;;5079041;28;20023;-79
2023/02/06 09:55:04;;;;;;;16.70;8.18;;;5.20;99.90;;;;;;5082974;28;20031;-79
2023/02/06 09:58:10;;;;;;;16.57;8.37;;;5.10;99.90;;;;;;5080620;28;20131;-78
2023/02/06 10:00:55;;;;;;;18.07;8.03;;;5.10;99.90;;;;;;5080398;28;20024;-83
2023/02/06 10:03:46;;;;;;;14.03;7.13;;;5.20;99.90;;;;;;5081616;28;20111;-82
2023/02/06 10:06:43;;;;;;;14.83;7.30;;;5.20;99.90;;;;;;5081073;28;20062;-86
2023/02/06 10:09:16;;;;;;;12.93;7.03;;;5.20;99.90;;;;;;5081062;28;20035;-85
2023/02/06 10:11:53;;;;;;;14.50;6.73;;;5.20;99.90;;;;;;5080645;28;20031;-85
2023/02/06 10:14:22;;;;;;;12.53;6.57;;;5.30;99.90;;;;;;5080856;28;20058;-79
2023/02/06 10:16:55;;;;;;;13.87;7.00;;;5.30;99.90;;;;;;5084950;28;20041;-84
2023/02/06 10:19:42;;;;;;;11.03;6.47;;;5.30;99.90;;;;;;5080522;28;20112;-77
2023/02/06 10:22:14;;;;;;;11.63;6.83;;;5.30;99.90;;;;;;5080093;28;20253;-82
2023/02/06 10:24:49;;;;;;;10.82;6.25;;;5.30;99.90;;;;;;5079419;28;20473;-76
2023/02/06 10:27:16;;;;;;;11.97;6.03;;;5.30;99.90;;;;;;5079334;28;20035;-75
2023/02/06 10:29:45;;;;;;;12.73;6.47;;;5.30;99.90;;;;;;5080941;28;20036;-75
2023/02/06 10:32:31;;;;;;;13.17;6.30;;;5.40;99.90;;;;;;5078911;28;20028;-78
2023/02/06 10:35:19;;;;;;;13.90;5.70;;;5.40;99.90;;;;;;5079490;28;20473;-75
2023/02/06 10:38:15;;;;;;;10.33;5.47;;;5.50;99.90;;;;;;5080144;28;20012;-75
2023/02/06 10:41:13;;;;;;;11.60;5.40;;;5.50;99.90;;;;;;5080635;28;20032;-78
2023/02/06 10:43:56;;;;;;;9.03;4.90;;;5.50;99.90;;;;;;5056244;28;20037;-80
2023/02/06 10:46:39;;;;;;;8.47;4.13;;;5.40;99.90;;;;;;5079949;28;20036;-79
2023/02/06 10:49:08;;;;;;;8.03;4.00;;;5.50;99.90;;;;;;5081064;28;20124;-79
2023/02/06 10:51:42;;;;;;;9.00;4.40;;;5.50;99.90;;;;;;5081941;28;20051;-80
2023/02/06 10:54:28;;;;;;;9.70;4.60;;;5.50;99.90;;;;;;5080813;28;20032;-82
2023/02/06 10:56:55;;;;;;;8.60;4.30;;;5.50;99.90;;;;;;5081111;28;20028;-80
2023/02/06 10:59:29;;;;;;;8.53;4.27;;;5.50;99.90;;;;;;5080453;28;20101;-79
2023/02/06 11:02:15;;;;;;;10.30;4.70;;;5.50;99.90;;;;;;5081295;28;20058;-79
2023/02/06 11:04:53;;;;;;;7.23;3.93;;;5.60;99.90;;;;;;5080485;28;20027;-78
2023/02/06 11:07:36;;;;;;;10.17;4.83;;;5.60;99.90;;;;;;5080789;28;20482;-79
2023/02/06 11:10:03;;;;;;;8.70;4.00;;;5.70;99.90;;;;;;5082189;28;20078;-78
2023/02/06 11:12:34;;;;;;;11.47;5.77;;;5.70;99.90;;;;;;5077945;28;20465;-79
2023/02/06 11:15:06;;;;;;;11.60;4.77;;;5.70;99.90;;;;;;5094376;28;20534;-76
2023/02/06 11:17:33;;;;;;;9.53;4.70;;;5.70;99.90;;;;;;5078432;28;20722;-76
2023/02/06 11:20:12;;;;;;;8.73;4.30;;;5.70;99.90;;;;;;5081353;28;20122;-78
2023/02/06 11:22:38;;;;;;;7.53;4.00;;;5.70;99.90;;;;;;5085646;28;20065;-75
2023/02/06 11:25:06;;;;;;;9.70;4.27;;;5.70;99.90;;;;;;5082851;28;20024;-80
2023/02/06 11:27:34;;;;;;;8.67;4.07;;;5.80;99.90;;;;;;5080881;28;20436;-75
2023/02/06 11:30:22;;;;;;;7.13;4.40;;;5.80;99.90;;;;;;5100953;28;20434;-74
2023/02/06 11:32:47;;;;;;;8.63;4.23;;;5.80;99.90;;;;;;5101417;28;20081;-74
2023/02/06 11:35:30;;;;;;;6.50;3.40;;;5.80;99.90;;;;;;5088588;28;20024;-76
2023/02/06 11:38:06;;;;;;;5.27;3.47;;;5.80;99.90;;;;;;5116066;28;20023;-75
2023/02/06 11:40:31;;;;;;;6.47;3.50;;;5.90;99.90;;;;;;5115188;28;20035;-75
2023/02/06 11:43:15;;;;;;;4.37;2.93;;;5.90;99.90;;;;;;5081547;28;20028;-77
2023/02/06 11:45:42;;;;;;;6.67;3.00;;;5.80;99.90;;;;;;5095569;28;20016;-77
2023/02/06 11:48:41;;;;;;;4.80;2.60;;;5.80;99.90;;;;;;5076896;28;20028;-75
2023/02/06 11:51:09;;;;;;;4.93;2.40;;;5.90;99.90;;;;;;5100740;28;20040;-76
2023/02/06 11:53:36;;;;;;;5.23;2.57;;;5.80;99.90;;;;;;5110458;28;20039;-75
2023/02/06 11:56:17;;;;;;;4.30;2.60;;;5.80;99.90;;;;;;5077293;28;20020;-75
2023/02/06 11:58:44;;;;;;;6.47;2.70;;;5.80;99.90;;;;;;5090682;28;20026;-74
2023/02/06 12:01:19;;;;;;;6.27;2.93;;;5.90;99.90;;;;;;5096708;28;20051;-77
2023/02/06 12:03:57;;;;;;;6.43;2.63;;;5.90;99.90;;;;;;5096613;28;20020;-75
2023/02/06 12:06:33;;;;;;;4.23;2.07;;;5.90;99.90;;;;;;5096088;28;20461;-74
2023/02/06 12:09:01;;;;;;;6.03;2.50;;;6.00;99.90;;;;;;5080694;28;20152;-77
2023/02/06 12:11:33;;;;;;;4.20;2.30;;;6.00;99.90;;;;;;5111460;28;20469;-77
2023/02/06 12:14:08;;;;;;;6.90;2.47;;;6.00;99.90;;;;;;5101780;28;20034;-75
2023/02/06 12:16:38;;;;;;;4.50;2.20;;;6.00;99.90;;;;;;5102167;28;20047;-75
2023/02/06 12:19:10;;;;;;;2.97;2.20;;;6.00;99.90;;;;;;5094523;28;20032;-75
2023/02/06 12:21:36;;;;;;;;;;;6.00;99.90;;;;;;5089115;28;20051;-76
2023/02/06 12:24:27;;;;;;;3.73;2.40;;;6.20;99.90;;;;;;5092086;28;20464;-75
2023/02/06 12:26:54;;;;;;;3.77;2.37;;;6.20;99.90;;;;;;5100931;28;20383;-76
2023/02/06 12:29:31;;;;;;;4.17;2.20;;;6.20;99.90;;;;;;5112416;28;20024;-75
2023/02/06 12:32:08;;;;;;;3.60;2.40;;;6.20;99.90;;;;;;5088691;28;20047;-76
2023/02/06 12:35:29;;;;;;;5.83;2.27;;;6.30;99.90;;;;;;5075880;28;20465;-75
2023/02/06 12:38:00;;;;;;;4.73;2.23;;;6.40;99.90;;;;;;5076131;28;20028;-75
2023/02/06 12:40:34;;;;;;;4.97;2.63;;;6.30;99.90;;;;;;5075553;28;20431;-75
2023/02/06 12:43:09;;;;;;;5.07;2.63;;;6.30;99.90;;;;;;5075660;28;20114;-75
2023/02/06 12:45:47;;;;;;;21.87;10.83;;;6.40;99.90;;;;;;5107375;28;20034;-77
2023/02/06 12:48:18;;;;;;;5.00;3.10;;;6.40;99.90;;;;;;5075633;28;20085;-77
2023/02/06 12:51:02;;;;;;;4.23;2.40;;;6.50;99.90;;;;;;5075828;28;20039;-76
2023/02/06 12:53:37;;;;;;;5.73;2.63;;;6.50;99.90;;;;;;5110785;28;20069;-77
2023/02/06 12:56:20;;;;;;;2.93;1.97;;;6.50;99.90;;;;;;5094289;28;20461;-77
2023/02/06 12:59:09;;;;;;;7.37;2.53;;;6.50;99.90;;;;;;5101008;28;20024;-76
2023/02/06 13:01:54;;;;;;;4.23;2.47;;;6.40;99.90;;;;;;5044937;28;20024;-76